sensor_id;sensor_type;location;lat;lon;timestamp;temperature;humidity
18426;DHT22;9340;48.756;9.226;2023-09-19T00:01:39;17.70;99.90
18426;DHT22;9340;48.756;9.226;2023-09-19T00:04:07;17.70;99.90
18426;DHT22;9340;48.756;9.226;2023-09-19T00:06:35;17.70;99.90
18426;DHT22;9340;48.756;9.226;2023-09-19T00:09:02;17.60;99.90
18426;DHT22;9340;48.756;9.226;2023-09-19T00:11:29;17.70;99.90
18426;DHT22;9340;48.756;9.226;2023-09-19T00:13:56;17.70;99.90
18426;DHT22;9340;48.756;9.226;2023-09-19T00:16:24;17.60;99.90
18426;DHT22;9340;48.756;9.226;2023-09-19T00:18:51;17.60;99.90
18426;DHT22;9340;48.756;9.226;2023-09-19T00:21:19;17.60;99.90
18426;DHT22;9340;48.756;9.226;2023-09-19T00:23:46;17.60;99.90
18426;DHT22;9340;48.756;9.226;2023-09-19T00:26:13;17.50;99.90
18426;DHT22;9340;48.756;9.226;2023-09-19T00:28:39;17.50;99.90
18426;DHT22;9340;48.756;9.226;2023-09-19T00:31:07;17.50;99.90
18426;DHT22;9340;48.756;9.226;2023-09-19T00:33:35;17.50;99.90
18426;DHT22;9340;48.756;9.226;2023-09-19T00:36:02;17.50;99.90
18426;DHT22;9340;48.756;9.226;2023-09-19T00:38:32;17.50;99.90
18426;DHT22;9340;48.756;9.226;2023-09-19T00:40:59;17.40;99.90
18426;DHT22;9340;48.756;9.226;2023-09-19T00:43:26;17.50;99.90
18426;DHT22;9340;48.756;9.226;2023-09-19T00:45:54;17.40;99.90
18426;DHT22;9340;48.756;9.226;2023-09-19T00:48:22;17.40;99.90
18426;DHT22;9340;48.756;9.226;2023-09-19T00:50:50;17.40;99.90
18426;DHT22;9340;48.756;9.226;2023-09-19T00:53:21;17.40;99.90
18426;DHT22;9340;48.756;9.226;2023-09-19T00:55:49;17.40;99.90
18426;DHT22;9340;48.756;9.226;2023-09-19T00:58:17;17.40;99.90
18426;DHT22;9340;48.756;9.226;2023-09-19T01:00:44;17.40;99.90
18426;DHT22;9340;48.756;9.226;2023-09-19T01:03:11;17.40;99.90
18426;DHT22;9340;48.756;9.226;2023-09-19T01:05:40;17.40;99.90
18426;DHT22;9340;48.756;9.226;2023-09-19T01:08:07;17.40;99.90
18426;DHT22;9340;48.756;9.226;2023-09-19T01:10:43;17.30;99.90
18426;DHT22;9340;48.756;9.226;2023-09-19T01:13:18;17.40;99.90
18426;DHT22;9340;48.756;9.226;2023-09-19T01:15:53;17.40;99.90
18426;DHT22;9340;48.756;9.226;2023-09-19T01:18:43;17.30;99.90
18426;DHT22;9340;48.756;9.226;2023-09-19T01:21:18;17.30;99.90
18426;DHT22;9340;48.756;9.226;2023-09-19T01:24:05;17.30;99.90
18426;DHT22;9340;48.756;9.226;2023-09-19T01:26:50;17.30;99.90
18426;DHT22;9340;48.756;9.226;2023-09-19T01:29:34;17.30;99.90
18426;DHT22;9340;48.756;9.226;2023-09-19T01:32:06;17.40;99.90
18426;DHT22;9340;48.756;9.226;2023-09-19T01:34:45;17.40;99.90
18426;DHT22;9340;48.756;9.226;2023-09-19T01:37:14;17.30;99.90
18426;DHT22;9340;48.756;9.226;2023-09-19T01:39:46;17.40;99.90
18426;DHT22;9340;48.756;9.226;2023-09-19T01:42:23;17.30;99.90
18426;DHT22;9340;48.756;9.226;2023-09-19T01:44:55;17.40;99.90
18426;DHT22;9340;48.756;9.226;2023-09-19T01:47:31;17.40;99.90
18426;DHT22;9340;48.756;9.226;2023-09-19T01:50:06;17.40;99.90
18426;DHT22;9340;48.756;9.226;2023-09-19T01:52:38;17.40;99.90
18426;DHT22;9340;48.756;9.226;2023-09-19T01:55:09;17.40;99.90
18426;DHT22;9340;48.756;9.226;2023-09-19T01:57:42;17.40;99.90
18426;DHT22;9340;48.756;9.226;2023-09-19T02:00:13;17.50;99.90
18426;DHT22;9340;48.756;9.226;2023-09-19T02:02:44;17.40;99.90
18426;DHT22;9340;48.756;9.226;2023-09-19T02:05:13;17.40;99.90
18426;DHT22;9340;48.756;9.226;2023-09-19T02:07:39;17.40;99.90
18426;DHT22;9340;48.756;9.226;2023-09-19T02:10:07;17.40;99.90
18426;DHT22;9340;48.756;9.226;2023-09-19T02:12:35;17.40;99.90
18426;DHT22;9340;48.756;9.226;2023-09-19T02:15:03;17.40;99.90
18426;DHT22;9340;48.756;9.226;2023-09-19T02:17:32;17.30;99.90
18426;DHT22;9340;48.756;9.226;2023-09-19T02:20:00;17.30;99.90
18426;DHT22;9340;48.756;9.226;2023-09-19T02:22:27;17.30;99.90
18426;DHT22;9340;48.756;9.226;2023-09-19T02:24:55;17.30;99.90
18426;DHT22;9340;48.756;9.226;2023-09-19T02:27:24;17.30;99.90
18426;DHT22;9340;48.756;9.226;2023-09-19T02:29:51;17.20;99.90
18426;DHT22;9340;48.756;9.226;2023-09-19T02:32:17;17.20;99.90
18426;DHT22;9340;48.756;9.226;2023-09-19T02:34:44;17.20;99.90
18426;DHT22;9340;48.756;9.226;2023-09-19T02:37:12;17.20;99.90
18426;DHT22;9340;48.756;9.226;2023-09-19T02:39:41;17.10;99.90
18426;DHT22;9340;48.756;9.226;2023-09-19T02:42:08;17.10;99.90
18426;DHT22;9340;48.756;9.226;2023-09-19T02:44:35;17.00;99.90
18426;DHT22;9340;48.756;9.226;2023-09-19T02:47:03;16.90;99.90
18426;DHT22;9340;48.756;9.226;2023-09-19T02:49:30;16.90;99.90
18426;DHT22;9340;48.756;9.226;2023-09-19T02:51:57;16.80;99.90
18426;DHT22;9340;48.756;9.226;2023-09-19T02:54:26;16.80;99.90
18426;DHT22;9340;48.756;9.226;2023-09-19T02:56:54;16.70;99.90
18426;DHT22;9340;48.756;9.226;2023-09-19T02:59:21;16.60;99.90
18426;DHT22;9340;48.756;9.226;2023-09-19T03:01:48;16.60;99.90
18426;DHT22;9340;48.756;9.226;2023-09-19T03:04:15;16.60;99.90
18426;DHT22;9340;48.756;9.226;2023-09-19T03:06:45;16.60;99.90
18426;DHT22;9340;48.756;9.226;2023-09-19T03:09:12;16.60;99.90
18426;DHT22;9340;48.756;9.226;2023-09-19T03:11:40;16.70;99.90
18426;DHT22;9340;48.756;9.226;2023-09-19T03:14:08;16.80;99.90
18426;DHT22;9340;48.756;9.226;2023-09-19T03:16:35;16.80;99.90
18426;DHT22;9340;48.756;9.226;2023-09-19T03:19:03;16.90;99.90
18426;DHT22;9340;48.756;9.226;2023-09-19T03:21:30;16.90;99.90
18426;DHT22;9340;48.756;9.226;2023-09-19T03:23:57;16.90;99.90
18426;DHT22;9340;48.756;9.226;2023-09-19T03:26:24;17.00;99.90
18426;DHT22;9340;48.756;9.226;2023-09-19T03:28:53;17.00;99.90
18426;DHT22;9340;48.756;9.226;2023-09-19T03:31:20;17.00;99.90
18426;DHT22;9340;48.756;9.226;2023-09-19T03:33:47;17.00;99.90
18426;DHT22;9340;48.756;9.226;2023-09-19T03:36:14;17.10;99.90
18426;DHT22;9340;48.756;9.226;2023-09-19T03:38:40;17.10;99.90
18426;DHT22;9340;48.756;9.226;2023-09-19T03:41:07;17.10;99.90
18426;DHT22;9340;48.756;9.226;2023-09-19T03:43:34;17.10;99.90
18426;DHT22;9340;48.756;9.226;2023-09-19T03:46:02;17.10;99.90
18426;DHT22;9340;48.756;9.226;2023-09-19T03:48:30;17.10;99.90
18426;DHT22;9340;48.756;9.226;2023-09-19T03:50:57;17.10;99.90
18426;DHT22;9340;48.756;9.226;2023-09-19T03:53:24;17.10;99.90
18426;DHT22;9340;48.756;9.226;2023-09-19T03:55:50;17.10;99.90
18426;DHT22;9340;48.756;9.226;2023-09-19T03:58:17;17.10;99.90
18426;DHT22;9340;48.756;9.226;2023-09-19T04:00:44;17.00;99.90
18426;DHT22;9340;48.756;9.226;2023-09-19T04:03:12;17.10;99.90
18426;DHT22;9340;48.756;9.226;2023-09-19T04:05:44;17.10;99.90
18426;DHT22;9340;48.756;9.226;2023-09-19T04:08:11;17.00;99.90
18426;DHT22;9340;48.756;9.226;2023-09-19T04:10:38;17.00;99.90
18426;DHT22;9340;48.756;9.226;2023-09-19T04:13:05;17.00;99.90
18426;DHT22;9340;48.756;9.226;2023-09-19T04:15:33;16.80;99.90
18426;DHT22;9340;48.756;9.226;2023-09-19T04:17:59;16.80;99.90
18426;DHT22;9340;48.756;9.226;2023-09-19T04:20:27;16.70;99.90
18426;DHT22;9340;48.756;9.226;2023-09-19T04:22:54;16.50;99.90
18426;DHT22;9340;48.756;9.226;2023-09-19T04:25:21;16.50;99.90
18426;DHT22;9340;48.756;9.226;2023-09-19T04:27:47;16.40;99.90
18426;DHT22;9340;48.756;9.226;2023-09-19T04:30:14;16.40;99.90
18426;DHT22;9340;48.756;9.226;2023-09-19T04:32:41;16.50;99.90
18426;DHT22;9340;48.756;9.226;2023-09-19T04:35:09;16.50;99.90
18426;DHT22;9340;48.756;9.226;2023-09-19T04:37:38;16.60;99.90
18426;DHT22;9340;48.756;9.226;2023-09-19T04:40:07;16.70;99.90
18426;DHT22;9340;48.756;9.226;2023-09-19T04:42:38;16.80;99.90
18426;DHT22;9340;48.756;9.226;2023-09-19T04:45:06;16.80;99.90
18426;DHT22;9340;48.756;9.226;2023-09-19T04:47:34;16.80;99.90
18426;DHT22;9340;48.756;9.226;2023-09-19T04:50:07;16.80;99.90
18426;DHT22;9340;48.756;9.226;2023-09-19T04:52:39;16.90;99.90
18426;DHT22;9340;48.756;9.226;2023-09-19T04:55:08;16.90;99.90
18426;DHT22;9340;48.756;9.226;2023-09-19T04:57:35;17.00;99.90
18426;DHT22;9340;48.756;9.226;2023-09-19T05:00:03;17.10;99.90
18426;DHT22;9340;48.756;9.226;2023-09-19T05:02:32;17.10;99.90
18426;DHT22;9340;48.756;9.226;2023-09-19T05:05:00;17.20;99.90
18426;DHT22;9340;48.756;9.226;2023-09-19T05:07:26;17.20;99.90
18426;DHT22;9340;48.756;9.226;2023-09-19T05:09:54;17.10;99.90
18426;DHT22;9340;48.756;9.226;2023-09-19T05:12:21;17.10;99.90
18426;DHT22;9340;48.756;9.226;2023-09-19T05:14:48;17.10;99.90
18426;DHT22;9340;48.756;9.226;2023-09-19T05:17:14;17.10;99.90
18426;DHT22;9340;48.756;9.226;2023-09-19T05:19:42;17.00;99.90
18426;DHT22;9340;48.756;9.226;2023-09-19T05:22:09;17.00;99.90
18426;DHT22;9340;48.756;9.226;2023-09-19T05:24:36;17.00;99.90
18426;DHT22;9340;48.756;9.226;2023-09-19T05:27:04;17.00;99.90
18426;DHT22;9340;48.756;9.226;2023-09-19T05:29:33;17.00;99.90
18426;DHT22;9340;48.756;9.226;2023-09-19T05:32:00;17.10;99.90
18426;DHT22;9340;48.756;9.226;2023-09-19T05:34:26;17.00;99.90
18426;DHT22;9340;48.756;9.226;2023-09-19T05:36:55;17.00;99.90
18426;DHT22;9340;48.756;9.226;2023-09-19T05:39:22;16.90;99.90
18426;DHT22;9340;48.756;9.226;2023-09-19T05:41:49;17.00;99.90
18426;DHT22;9340;48.756;9.226;2023-09-19T05:44:17;17.00;99.90
18426;DHT22;9340;48.756;9.226;2023-09-19T05:46:43;17.00;99.90
18426;DHT22;9340;48.756;9.226;2023-09-19T05:49:11;17.00;99.90
18426;DHT22;9340;48.756;9.226;2023-09-19T05:51:37;17.10;99.90
18426;DHT22;9340;48.756;9.226;2023-09-19T05:54:04;17.10;99.90
18426;DHT22;9340;48.756;9.226;2023-09-19T05:56:31;17.00;99.90
18426;DHT22;9340;48.756;9.226;2023-09-19T05:58:58;16.70;99.90
18426;DHT22;9340;48.756;9.226;2023-09-19T06:01:26;16.50;99.90
18426;DHT22;9340;48.756;9.226;2023-09-19T06:03:53;16.40;99.90
18426;DHT22;9340;48.756;9.226;2023-09-19T06:06:20;16.30;99.90
18426;DHT22;9340;48.756;9.226;2023-09-19T06:08:46;16.20;99.90
18426;DHT22;9340;48.756;9.226;2023-09-19T06:11:16;16.00;99.90
18426;DHT22;9340;48.756;9.226;2023-09-19T06:13:45;16.00;99.90
18426;DHT22;9340;48.756;9.226;2023-09-19T06:16:12;16.00;99.90
18426;DHT22;9340;48.756;9.226;2023-09-19T06:18:41;16.10;99.90
18426;DHT22;9340;48.756;9.226;2023-09-19T06:21:07;16.20;99.90
18426;DHT22;9340;48.756;9.226;2023-09-19T06:23:34;16.30;99.90
18426;DHT22;9340;48.756;9.226;2023-09-19T06:26:01;16.40;99.90
18426;DHT22;9340;48.756;9.226;2023-09-19T06:28:28;16.40;99.90
18426;DHT22;9340;48.756;9.226;2023-09-19T06:30:55;16.40;99.90
18426;DHT22;9340;48.756;9.226;2023-09-19T06:33:22;16.40;99.90
18426;DHT22;9340;48.756;9.226;2023-09-19T06:35:50;16.40;99.90
18426;DHT22;9340;48.756;9.226;2023-09-19T06:38:24;16.40;99.90
18426;DHT22;9340;48.756;9.226;2023-09-19T06:40:51;16.40;99.90
18426;DHT22;9340;48.756;9.226;2023-09-19T06:43:18;16.40;99.90
18426;DHT22;9340;48.756;9.226;2023-09-19T06:45:45;16.50;99.90
18426;DHT22;9340;48.756;9.226;2023-09-19T06:48:12;16.60;99.90
18426;DHT22;9340;48.756;9.226;2023-09-19T06:50:38;16.90;99.90
18426;DHT22;9340;48.756;9.226;2023-09-19T06:53:08;16.90;99.90
18426;DHT22;9340;48.756;9.226;2023-09-19T06:55:35;16.70;99.90
18426;DHT22;9340;48.756;9.226;2023-09-19T06:58:02;16.80;99.90
18426;DHT22;9340;48.756;9.226;2023-09-19T07:00:31;16.90;99.90
18426;DHT22;9340;48.756;9.226;2023-09-19T07:03:03;17.00;99.90
18426;DHT22;9340;48.756;9.226;2023-09-19T07:05:34;17.20;99.90
18426;DHT22;9340;48.756;9.226;2023-09-19T07:08:03;17.50;99.90
18426;DHT22;9340;48.756;9.226;2023-09-19T07:10:32;17.60;99.90
18426;DHT22;9340;48.756;9.226;2023-09-19T07:12:59;17.80;99.90
18426;DHT22;9340;48.756;9.226;2023-09-19T07:15:26;17.90;99.90
18426;DHT22;9340;48.756;9.226;2023-09-19T07:17:54;18.00;99.90
18426;DHT22;9340;48.756;9.226;2023-09-19T07:20:22;18.10;99.90
18426;DHT22;9340;48.756;9.226;2023-09-19T07:22:50;18.20;99.90
18426;DHT22;9340;48.756;9.226;2023-09-19T07:25:18;18.00;99.90
18426;DHT22;9340;48.756;9.226;2023-09-19T07:27:46;18.00;99.90
18426;DHT22;9340;48.756;9.226;2023-09-19T07:30:13;18.10;99.90
18426;DHT22;9340;48.756;9.226;2023-09-19T07:32:42;18.10;99.90
18426;DHT22;9340;48.756;9.226;2023-09-19T07:35:09;18.20;99.90
18426;DHT22;9340;48.756;9.226;2023-09-19T07:37:35;18.30;99.90
18426;DHT22;9340;48.756;9.226;2023-09-19T07:40:02;18.40;99.90
18426;DHT22;9340;48.756;9.226;2023-09-19T07:42:32;18.50;99.90
18426;DHT22;9340;48.756;9.226;2023-09-19T07:45:03;18.60;99.90
18426;DHT22;9340;48.756;9.226;2023-09-19T07:47:30;18.60;99.90
18426;DHT22;9340;48.756;9.226;2023-09-19T07:49:58;18.70;99.90
18426;DHT22;9340;48.756;9.226;2023-09-19T07:52:25;18.80;99.90
18426;DHT22;9340;48.756;9.226;2023-09-19T07:54:53;18.80;99.90
18426;DHT22;9340;48.756;9.226;2023-09-19T07:57:20;18.80;99.90
18426;DHT22;9340;48.756;9.226;2023-09-19T07:59:46;18.90;99.90
18426;DHT22;9340;48.756;9.226;2023-09-19T08:02:14;18.90;99.90
18426;DHT22;9340;48.756;9.226;2023-09-19T08:04:42;18.90;99.90
18426;DHT22;9340;48.756;9.226;2023-09-19T08:07:08;18.90;99.90
18426;DHT22;9340;48.756;9.226;2023-09-19T08:09:36;18.90;99.90
18426;DHT22;9340;48.756;9.226;2023-09-19T08:12:04;18.90;99.90
18426;DHT22;9340;48.756;9.226;2023-09-19T08:14:31;18.90;99.90
18426;DHT22;9340;48.756;9.226;2023-09-19T08:16:58;19.00;99.90
18426;DHT22;9340;48.756;9.226;2023-09-19T08:19:27;19.10;99.90
18426;DHT22;9340;48.756;9.226;2023-09-19T08:21:57;19.20;99.90
18426;DHT22;9340;48.756;9.226;2023-09-19T08:24:24;19.30;99.90
18426;DHT22;9340;48.756;9.226;2023-09-19T08:26:52;19.30;99.90
18426;DHT22;9340;48.756;9.226;2023-09-19T08:29:19;19.30;99.90
18426;DHT22;9340;48.756;9.226;2023-09-19T08:31:46;19.30;99.90
18426;DHT22;9340;48.756;9.226;2023-09-19T08:34:14;19.30;99.90
18426;DHT22;9340;48.756;9.226;2023-09-19T08:36:43;19.50;99.90
18426;DHT22;9340;48.756;9.226;2023-09-19T08:39:10;19.60;99.90
18426;DHT22;9340;48.756;9.226;2023-09-19T08:41:39;19.60;99.90
18426;DHT22;9340;48.756;9.226;2023-09-19T08:44:06;19.70;99.90
18426;DHT22;9340;48.756;9.226;2023-09-19T08:46:34;19.60;99.90
18426;DHT22;9340;48.756;9.226;2023-09-19T08:49:05;19.60;99.90
18426;DHT22;9340;48.756;9.226;2023-09-19T08:51:39;19.50;99.90
18426;DHT22;9340;48.756;9.226;2023-09-19T08:54:16;19.50;99.90
18426;DHT22;9340;48.756;9.226;2023-09-19T08:56:48;19.60;99.90
18426;DHT22;9340;48.756;9.226;2023-09-19T08:59:17;19.70;99.90
18426;DHT22;9340;48.756;9.226;2023-09-19T09:01:49;19.70;99.90
18426;DHT22;9340;48.756;9.226;2023-09-19T09:04:19;19.80;99.90
18426;DHT22;9340;48.756;9.226;2023-09-19T09:06:46;20.00;99.90
18426;DHT22;9340;48.756;9.226;2023-09-19T09:09:15;20.10;99.90
18426;DHT22;9340;48.756;9.226;2023-09-19T09:11:42;20.20;99.90
18426;DHT22;9340;48.756;9.226;2023-09-19T09:14:09;20.20;99.90
18426;DHT22;9340;48.756;9.226;2023-09-19T09:16:36;20.20;99.90
18426;DHT22;9340;48.756;9.226;2023-09-19T09:19:03;20.20;99.90
18426;DHT22;9340;48.756;9.226;2023-09-19T09:21:31;20.10;99.90
18426;DHT22;9340;48.756;9.226;2023-09-19T09:24:27;20.10;99.90
18426;DHT22;9340;48.756;9.226;2023-09-19T09:26:55;20.10;99.90
18426;DHT22;9340;48.756;9.226;2023-09-19T09:29:41;20.10;99.90
18426;DHT22;9340;48.756;9.226;2023-09-19T09:32:22;20.00;99.90
18426;DHT22;9340;48.756;9.226;2023-09-19T09:34:51;20.00;99.90
18426;DHT22;9340;48.756;9.226;2023-09-19T09:37:18;20.30;99.90
18426;DHT22;9340;48.756;9.226;2023-09-19T09:39:54;20.50;99.90
18426;DHT22;9340;48.756;9.226;2023-09-19T09:42:34;20.60;99.90
18426;DHT22;9340;48.756;9.226;2023-09-19T09:45:15;20.70;99.90
18426;DHT22;9340;48.756;9.226;2023-09-19T09:47:42;20.60;99.90
18426;DHT22;9340;48.756;9.226;2023-09-19T09:50:26;20.50;99.90
18426;DHT22;9340;48.756;9.226;2023-09-19T09:53:19;20.40;99.90
18426;DHT22;9340;48.756;9.226;2023-09-19T09:56:01;20.50;99.90
18426;DHT22;9340;48.756;9.226;2023-09-19T09:58:30;20.60;99.90
18426;DHT22;9340;48.756;9.226;2023-09-19T10:00:58;20.80;99.90
18426;DHT22;9340;48.756;9.226;2023-09-19T10:03:33;20.90;99.90
18426;DHT22;9340;48.756;9.226;2023-09-19T10:06:05;21.00;99.90
18426;DHT22;9340;48.756;9.226;2023-09-19T10:09:00;21.00;99.90
18426;DHT22;9340;48.756;9.226;2023-09-19T10:11:40;21.00;99.90
18426;DHT22;9340;48.756;9.226;2023-09-19T10:14:09;20.90;99.90
18426;DHT22;9340;48.756;9.226;2023-09-19T10:16:40;20.60;99.90
18426;DHT22;9340;48.756;9.226;2023-09-19T10:19:10;20.40;99.90
18426;DHT22;9340;48.756;9.226;2023-09-19T10:21:41;20.30;99.90
18426;DHT22;9340;48.756;9.226;2023-09-19T10:24:10;20.40;99.90
18426;DHT22;9340;48.756;9.226;2023-09-19T10:26:39;20.60;99.90
18426;DHT22;9340;48.756;9.226;2023-09-19T10:29:10;20.90;99.90
18426;DHT22;9340;48.756;9.226;2023-09-19T10:31:39;21.30;99.90
18426;DHT22;9340;48.756;9.226;2023-09-19T10:34:13;21.40;99.90
18426;DHT22;9340;48.756;9.226;2023-09-19T10:36:44;21.70;99.90
18426;DHT22;9340;48.756;9.226;2023-09-19T10:39:14;21.80;99.90
18426;DHT22;9340;48.756;9.226;2023-09-19T10:41:49;21.90;99.90
18426;DHT22;9340;48.756;9.226;2023-09-19T10:44:22;22.00;99.90
18426;DHT22;9340;48.756;9.226;2023-09-19T10:46:50;22.00;99.90
18426;DHT22;9340;48.756;9.226;2023-09-19T10:49:18;22.20;99.90
18426;DHT22;9340;48.756;9.226;2023-09-19T10:51:46;22.30;99.90
18426;DHT22;9340;48.756;9.226;2023-09-19T10:54:17;22.20;99.90
18426;DHT22;9340;48.756;9.226;2023-09-19T10:56:49;22.00;99.90
18426;DHT22;9340;48.756;9.226;2023-09-19T10:59:18;21.90;99.90
18426;DHT22;9340;48.756;9.226;2023-09-19T11:01:47;21.90;99.90
18426;DHT22;9340;48.756;9.226;2023-09-19T11:04:27;22.00;99.90
18426;DHT22;9340;48.756;9.226;2023-09-19T11:07:02;22.00;99.90
18426;DHT22;9340;48.756;9.226;2023-09-19T11:09:49;21.90;99.90
18426;DHT22;9340;48.756;9.226;2023-09-19T11:12:50;21.90;99.90
18426;DHT22;9340;48.756;9.226;2023-09-19T11:18:50;22.50;99.90
18426;DHT22;9340;48.756;9.226;2023-09-19T11:24:31;22.20;99.90
18426;DHT22;9340;48.756;9.226;2023-09-19T11:27:15;22.00;99.90
18426;DHT22;9340;48.756;9.226;2023-09-19T11:29:44;22.00;99.90
18426;DHT22;9340;48.756;9.226;2023-09-19T11:32:12;22.10;99.90
18426;DHT22;9340;48.756;9.226;2023-09-19T11:34:47;22.10;99.90
18426;DHT22;9340;48.756;9.226;2023-09-19T11:40:38;22.20;99.90
18426;DHT22;9340;48.756;9.226;2023-09-19T11:43:32;22.20;99.90
18426;DHT22;9340;48.756;9.226;2023-09-19T11:46:10;22.00;99.90
18426;DHT22;9340;48.756;9.226;2023-09-19T11:48:38;21.90;99.90
18426;DHT22;9340;48.756;9.226;2023-09-19T11:51:13;21.90;99.90
18426;DHT22;9340;48.756;9.226;2023-09-19T11:53:46;22.10;99.90
18426;DHT22;9340;48.756;9.226;2023-09-19T11:56:16;22.30;99.90
18426;DHT22;9340;48.756;9.226;2023-09-19T11:58:43;22.10;99.90
18426;DHT22;9340;48.756;9.226;2023-09-19T12:01:14;22.00;99.90
18426;DHT22;9340;48.756;9.226;2023-09-19T12:03:46;21.90;99.90
18426;DHT22;9340;48.756;9.226;2023-09-19T12:06:15;21.80;99.90
18426;DHT22;9340;48.756;9.226;2023-09-19T12:08:42;21.80;99.90
18426;DHT22;9340;48.756;9.226;2023-09-19T12:11:13;21.70;99.90
18426;DHT22;9340;48.756;9.226;2023-09-19T12:13:42;21.60;99.90
18426;DHT22;9340;48.756;9.226;2023-09-19T12:16:15;21.60;99.90
18426;DHT22;9340;48.756;9.226;2023-09-19T12:18:42;21.40;99.90
18426;DHT22;9340;48.756;9.226;2023-09-19T12:21:24;21.40;99.90
18426;DHT22;9340;48.756;9.226;2023-09-19T12:24:13;21.30;99.90
18426;DHT22;9340;48.756;9.226;2023-09-19T12:26:45;21.40;99.90
18426;DHT22;9340;48.756;9.226;2023-09-19T12:29:19;21.30;99.90
18426;DHT22;9340;48.756;9.226;2023-09-19T12:31:51;21.20;99.90
18426;DHT22;9340;48.756;9.226;2023-09-19T12:34:22;21.00;99.90
18426;DHT22;9340;48.756;9.226;2023-09-19T12:37:04;20.90;99.90
18426;DHT22;9340;48.756;9.226;2023-09-19T12:39:37;20.80;99.90
18426;DHT22;9340;48.756;9.226;2023-09-19T12:42:04;21.00;99.90
18426;DHT22;9340;48.756;9.226;2023-09-19T12:44:34;21.20;99.90
18426;DHT22;9340;48.756;9.226;2023-09-19T12:47:13;21.40;99.90
18426;DHT22;9340;48.756;9.226;2023-09-19T12:50:10;21.60;99.90
18426;DHT22;9340;48.756;9.226;2023-09-19T12:52:45;21.60;99.90
18426;DHT22;9340;48.756;9.226;2023-09-19T12:55:26;21.90;99.90
18426;DHT22;9340;48.756;9.226;2023-09-19T12:57:58;22.00;99.90
18426;DHT22;9340;48.756;9.226;2023-09-19T13:00:35;22.00;99.90
18426;DHT22;9340;48.756;9.226;2023-09-19T13:03:17;22.20;99.90
18426;DHT22;9340;48.756;9.226;2023-09-19T13:05:51;22.30;99.90
18426;DHT22;9340;48.756;9.226;2023-09-19T13:08:20;22.50;99.90
18426;DHT22;9340;48.756;9.226;2023-09-19T13:11:05;22.70;99.90
18426;DHT22;9340;48.756;9.226;2023-09-19T13:13:35;22.60;99.90
18426;DHT22;9340;48.756;9.226;2023-09-19T13:16:03;22.60;99.90
18426;DHT22;9340;48.756;9.226;2023-09-19T13:18:41;22.40;99.90
18426;DHT22;9340;48.756;9.226;2023-09-19T13:21:11;22.30;99.90
18426;DHT22;9340;48.756;9.226;2023-09-19T13:23:41;22.30;99.90
18426;DHT22;9340;48.756;9.226;2023-09-19T13:26:09;22.30;99.90
18426;DHT22;9340;48.756;9.226;2023-09-19T13:28:37;22.50;99.90
18426;DHT22;9340;48.756;9.226;2023-09-19T13:31:03;22.60;99.90
18426;DHT22;9340;48.756;9.226;2023-09-19T13:33:31;22.80;99.90
18426;DHT22;9340;48.756;9.226;2023-09-19T13:35:59;22.90;99.90
18426;DHT22;9340;48.756;9.226;2023-09-19T13:38:26;22.90;99.90
18426;DHT22;9340;48.756;9.226;2023-09-19T13:40:54;22.80;99.90
18426;DHT22;9340;48.756;9.226;2023-09-19T13:43:21;22.60;99.90
18426;DHT22;9340;48.756;9.226;2023-09-19T13:45:48;22.50;99.90
18426;DHT22;9340;48.756;9.226;2023-09-19T13:48:15;22.50;99.90
18426;DHT22;9340;48.756;9.226;2023-09-19T13:50:48;22.60;99.90
18426;DHT22;9340;48.756;9.226;2023-09-19T13:53:16;22.70;99.90
18426;DHT22;9340;48.756;9.226;2023-09-19T13:55:43;22.60;99.90
18426;DHT22;9340;48.756;9.226;2023-09-19T13:58:10;22.60;99.90
18426;DHT22;9340;48.756;9.226;2023-09-19T14:00:38;22.60;99.90
18426;DHT22;9340;48.756;9.226;2023-09-19T14:03:05;22.70;99.90
18426;DHT22;9340;48.756;9.226;2023-09-19T14:05:31;22.80;99.90
18426;DHT22;9340;48.756;9.226;2023-09-19T14:07:58;23.00;99.90
18426;DHT22;9340;48.756;9.226;2023-09-19T14:10:26;23.00;99.90
18426;DHT22;9340;48.756;9.226;2023-09-19T14:12:55;22.90;99.90
18426;DHT22;9340;48.756;9.226;2023-09-19T14:15:22;22.90;99.90
18426;DHT22;9340;48.756;9.226;2023-09-19T14:17:55;23.00;99.90
18426;DHT22;9340;48.756;9.226;2023-09-19T14:20:21;22.90;99.90
18426;DHT22;9340;48.756;9.226;2023-09-19T14:22:49;22.90;99.90
18426;DHT22;9340;48.756;9.226;2023-09-19T14:25:16;22.90;99.90
18426;DHT22;9340;48.756;9.226;2023-09-19T14:27:44;22.90;99.90
18426;DHT22;9340;48.756;9.226;2023-09-19T14:30:12;23.00;99.90
18426;DHT22;9340;48.756;9.226;2023-09-19T14:32:38;22.90;99.90
18426;DHT22;9340;48.756;9.226;2023-09-19T14:35:06;23.00;99.90
18426;DHT22;9340;48.756;9.226;2023-09-19T14:37:34;23.00;99.90
18426;DHT22;9340;48.756;9.226;2023-09-19T14:40:01;23.00;99.90
18426;DHT22;9340;48.756;9.226;2023-09-19T14:42:32;23.00;99.90
18426;DHT22;9340;48.756;9.226;2023-09-19T14:45:03;23.00;99.90
18426;DHT22;9340;48.756;9.226;2023-09-19T14:47:30;23.00;99.90
18426;DHT22;9340;48.756;9.226;2023-09-19T14:49:59;22.90;99.90
18426;DHT22;9340;48.756;9.226;2023-09-19T14:52:26;22.90;99.90
18426;DHT22;9340;48.756;9.226;2023-09-19T14:54:53;23.00;99.90
18426;DHT22;9340;48.756;9.226;2023-09-19T14:57:20;23.00;99.90
18426;DHT22;9340;48.756;9.226;2023-09-19T14:59:49;23.00;99.90
18426;DHT22;9340;48.756;9.226;2023-09-19T15:02:17;23.00;99.90
18426;DHT22;9340;48.756;9.226;2023-09-19T15:04:44;22.90;99.90
18426;DHT22;9340;48.756;9.226;2023-09-19T15:07:12;22.80;99.90
18426;DHT22;9340;48.756;9.226;2023-09-19T15:09:40;22.80;99.90
18426;DHT22;9340;48.756;9.226;2023-09-19T15:12:07;22.80;99.90
18426;DHT22;9340;48.756;9.226;2023-09-19T15:14:34;22.70;99.90
18426;DHT22;9340;48.756;9.226;2023-09-19T15:17:00;22.70;99.90
18426;DHT22;9340;48.756;9.226;2023-09-19T15:19:31;22.70;99.90
18426;DHT22;9340;48.756;9.226;2023-09-19T15:21:58;22.60;99.90
18426;DHT22;9340;48.756;9.226;2023-09-19T15:24:25;22.60;99.90
18426;DHT22;9340;48.756;9.226;2023-09-19T15:26:53;22.50;99.90
18426;DHT22;9340;48.756;9.226;2023-09-19T15:29:21;22.60;99.90
18426;DHT22;9340;48.756;9.226;2023-09-19T15:31:48;22.50;99.90
18426;DHT22;9340;48.756;9.226;2023-09-19T15:34:15;22.50;99.90
18426;DHT22;9340;48.756;9.226;2023-09-19T15:36:43;22.50;99.90
18426;DHT22;9340;48.756;9.226;2023-09-19T15:39:11;22.50;99.90
18426;DHT22;9340;48.756;9.226;2023-09-19T15:41:40;22.40;99.90
18426;DHT22;9340;48.756;9.226;2023-09-19T15:44:12;22.30;99.90
18426;DHT22;9340;48.756;9.226;2023-09-19T15:46:39;22.40;99.90
18426;DHT22;9340;48.756;9.226;2023-09-19T15:49:06;22.40;99.90
18426;DHT22;9340;48.756;9.226;2023-09-19T15:51:34;22.30;99.90
18426;DHT22;9340;48.756;9.226;2023-09-19T15:54:08;22.30;99.90
18426;DHT22;9340;48.756;9.226;2023-09-19T15:56:36;22.20;99.90
18426;DHT22;9340;48.756;9.226;2023-09-19T15:59:04;22.20;99.90
18426;DHT22;9340;48.756;9.226;2023-09-19T16:01:30;22.20;99.90
18426;DHT22;9340;48.756;9.226;2023-09-19T16:03:57;22.10;99.90
18426;DHT22;9340;48.756;9.226;2023-09-19T16:06:26;22.10;99.90
18426;DHT22;9340;48.756;9.226;2023-09-19T16:08:54;22.10;99.90
18426;DHT22;9340;48.756;9.226;2023-09-19T16:11:26;22.00;99.90